Time;durP1;ratioP1;P1;durP2;ratioP2;P2;SDS_P1;SDS_P2;PMS_P1;PMS_P2;Temp;Humidity;BMP_temperature;BMP_pressure;BME280_temperature;BME280_humidity;BME280_pressure;Samples;Min_cycle;Max_cycle;Signal;HPM_P1;HPM_P2
2021/10/31 00:01:32;;;;;;;26.47;23.80;;;11.10;1.00;;;;;;5106066;27;20467;-81
2021/10/31 00:04:00;;;;;;;26.40;23.70;;;11.10;1.00;;;;;;5101155;27;20478;-83
2021/10/31 00:06:27;;;;;;;26.50;23.80;;;11.10;1.00;;;;;;5101457;27;20433;-82
2021/10/31 00:08:53;;;;;;;26.27;23.57;;;11.10;1.00;;;;;;5100631;27;20491;-82
2021/10/31 00:11:20;;;;;;;25.53;23.03;;;11.10;1.00;;;;;;5106709;27;20461;-82
2021/10/31 00:13:53;;;;;;;26.00;23.50;;;11.10;1.00;;;;;;5104909;27;23691;-83
2021/10/31 00:16:20;;;;;;;25.23;22.80;;;11.10;1.00;;;;;;5096653;27;20593;-82
2021/10/31 00:18:46;;;;;;;24.13;21.90;;;11.10;1.00;;;;;;5102262;27;20532;-83
2021/10/31 00:21:15;;;;;;;26.77;24.00;;;11.00;1.00;;;;;;5100540;27;20610;-83
2021/10/31 00:23:41;;;;;;;29.00;26.20;;;11.10;1.00;;;;;;5103749;27;20601;-82
2021/10/31 00:26:08;;;;;;;27.90;25.20;;;11.00;1.00;;;;;;5100405;27;20444;-81
2021/10/31 00:28:35;;;;;;;27.10;24.40;;;11.10;1.00;;;;;;5091767;27;20440;-82
2021/10/31 00:31:01;;;;;;;27.70;24.97;;;11.00;1.00;;;;;;5105748;27;20465;-81
2021/10/31 00:33:31;;;;;;;28.50;25.57;;;11.10;1.00;;;;;;5106847;27;20449;-81
2021/10/31 00:35:58;;;;;;;29.23;25.90;;;11.20;1.00;;;;;;5106152;27;20980;-82
2021/10/31 00:38:26;;;;;;;28.77;25.63;;;11.20;1.00;;;;;;5127991;27;20436;-82
2021/10/31 00:40:53;;;;;;;26.13;23.43;;;11.20;1.00;;;;;;5123940;27;20567;-82
2021/10/31 00:43:20;;;;;;;27.47;24.40;;;11.20;1.00;;;;;;5097868;27;20460;-82
2021/10/31 00:45:48;;;;;;;26.73;24.00;;;11.30;1.00;;;;;;5113801;27;20460;-82
2021/10/31 00:48:15;;;;;;;26.10;23.40;;;11.30;1.00;;;;;;5114304;27;20879;-81
2021/10/31 00:50:43;;;;;;;26.90;24.13;;;11.30;1.00;;;;;;5122394;27;20746;-82
2021/10/31 00:53:10;;;;;;;26.10;23.60;;;11.30;1.00;;;;;;5119220;27;20485;-84
2021/10/31 00:55:40;;;;;;;26.03;23.33;;;11.30;1.00;;;;;;5118622;27;21817;-82
2021/10/31 00:58:12;;;;;;;26.37;23.97;;;11.30;1.00;;;;;;5105657;27;20857;-82
2021/10/31 01:00:39;;;;;;;27.13;24.23;;;11.30;1.00;;;;;;5099022;27;20457;-83
2021/10/31 01:03:07;;;;;;;26.17;23.60;;;11.30;1.00;;;;;;5100494;27;20431;-83
2021/10/31 01:05:41;;;;;;;26.23;23.43;;;11.30;1.00;;;;;;5097828;27;21448;-83
2021/10/31 01:08:19;;;;;;;26.67;23.80;;;11.40;1.00;;;;;;5102962;27;20487;-84
2021/10/31 01:11:08;;;;;;;26.00;23.50;;;11.50;1.00;;;;;;5101745;27;20440;-84
2021/10/31 01:14:02;;;;;;;27.20;24.40;;;11.50;1.00;;;;;;5106629;27;20452;-84
2021/10/31 01:16:43;;;;;;;26.77;24.07;;;11.40;1.00;;;;;;5103507;27;20486;-84
2021/10/31 01:19:24;;;;;;;26.80;24.20;;;11.40;1.00;;;;;;5106079;27;20472;-83
2021/10/31 01:21:58;;;;;;;25.70;23.00;;;11.50;1.00;;;;;;5100674;27;20528;-84
2021/10/31 01:24:44;;;;;;;27.43;24.77;;;11.50;1.00;;;;;;5101464;27;20445;-84
2021/10/31 01:27:26;;;;;;;26.20;23.50;;;11.50;1.00;;;;;;5105880;27;20507;-83
2021/10/31 01:30:04;;;;;;;25.53;22.87;;;11.60;1.00;;;;;;5102183;27;20437;-83
2021/10/31 01:32:41;;;;;;;25.10;22.53;;;11.60;1.00;;;;;;5103561;27;21670;-83
2021/10/31 01:35:17;;;;;;;25.27;22.77;;;11.70;1.00;;;;;;5106312;27;22015;-84
2021/10/31 01:37:55;;;;;;;27.37;24.33;;;11.70;1.00;;;;;;5120378;27;20428;-84
2021/10/31 01:40:28;;;;;;;25.03;22.40;;;11.70;1.00;;;;;;5133212;27;20441;-83
2021/10/31 01:43:06;;;;;;;24.93;22.43;;;11.80;1.00;;;;;;5107429;27;20477;-83
2021/10/31 01:45:39;;;;;;;23.90;21.60;;;11.70;1.00;;;;;;5101085;27;20457;-83
2021/10/31 01:48:12;;;;;;;23.33;21.00;;;11.70;1.00;;;;;;5107025;27;20661;-84
2021/10/31 01:50:47;;;;;;;23.67;21.57;;;11.60;1.00;;;;;;5101658;27;20417;-84
2021/10/31 01:53:19;;;;;;;24.23;21.80;;;11.50;1.00;;;;;;5109687;27;20499;-84
2021/10/31 01:55:49;;;;;;;25.90;23.20;;;11.40;1.00;;;;;;5099438;27;20453;-83
2021/10/31 01:58:21;;;;;;;23.30;21.00;;;11.40;1.00;;;;;;5104141;27;20479;-83
2021/10/31 02:00:50;;;;;;;25.00;22.60;;;11.30;1.00;;;;;;5104474;27;20433;-84
2021/10/31 02:03:19;;;;;;;25.53;22.93;;;11.30;1.00;;;;;;5102794;27;20469;-84
2021/10/31 02:05:47;;;;;;;23.80;21.50;;;11.30;1.00;;;;;;5105861;27;20445;-84
2021/10/31 02:08:16;;;;;;;25.77;23.17;;;11.20;1.00;;;;;;5105574;27;20432;-84
2021/10/31 02:10:46;;;;;;;23.83;21.10;;;11.20;1.00;;;;;;5102432;27;20445;-84
2021/10/31 02:13:15;;;;;;;26.20;23.60;;;11.20;1.00;;;;;;5101693;27;20545;-84
2021/10/31 02:15:45;;;;;;;24.73;22.30;;;11.20;1.00;;;;;;5104151;27;20456;-83
2021/10/31 02:18:14;;;;;;;24.30;21.90;;;11.10;1.00;;;;;;5103653;27;21329;-84
2021/10/31 02:20:43;;;;;;;24.07;21.57;;;11.10;1.00;;;;;;5100669;27;20468;-83
2021/10/31 02:23:11;;;;;;;22.80;20.70;;;11.10;1.00;;;;;;5099635;27;20414;-83
2021/10/31 02:25:37;;;;;;;24.20;21.80;;;11.10;1.00;;;;;;5100410;27;20710;-84
2021/10/31 02:28:05;;;;;;;24.03;21.40;;;11.10;1.00;;;;;;5103883;27;20461;-84
2021/10/31 02:30:32;;;;;;;24.47;22.10;;;11.00;1.00;;;;;;5104032;27;20509;-84
2021/10/31 02:32:58;;;;;;;25.17;22.63;;;11.00;1.00;;;;;;5103590;27;20448;-84
2021/10/31 02:35:25;;;;;;;23.10;20.70;;;11.00;1.00;;;;;;5104795;27;20449;-84
2021/10/31 02:37:52;;;;;;;23.73;21.43;;;11.00;1.00;;;;;;5106483;27;20464;-84
2021/10/31 02:40:23;;;;;;;24.30;21.80;;;11.00;1.00;;;;;;5132370;27;20421;-84
2021/10/31 02:42:50;;;;;;;24.57;22.00;;;11.00;1.00;;;;;;5135626;27;20625;-83
2021/10/31 02:45:17;;;;;;;23.80;21.27;;;10.90;1.00;;;;;;5110174;27;20441;-84
2021/10/31 02:47:49;;;;;;;23.40;20.87;;;10.90;1.00;;;;;;5104197;27;21477;-84
2021/10/31 02:50:20;;;;;;;23.60;21.40;;;10.90;1.00;;;;;;5098806;27;20414;-84
2021/10/31 02:53:01;;;;;;;25.90;23.40;;;10.90;1.00;;;;;;5100334;27;20443;-84
2021/10/31 02:55:37;;;;;;;27.37;24.67;;;10.90;1.00;;;;;;5102095;27;20456;-84
2021/10/31 02:58:08;;;;;;;23.57;21.00;;;10.80;1.00;;;;;;5103845;27;21308;-83
2021/10/31 03:00:38;;;;;;;23.67;21.17;;;10.80;1.00;;;;;;5104170;27;21445;-83
2021/10/31 03:03:06;;;;;;;23.17;20.77;;;10.80;1.00;;;;;;5105594;27;21027;-84
2021/10/31 03:05:33;;;;;;;27.30;24.50;;;10.80;1.00;;;;;;5108922;27;20424;-84
2021/10/31 03:08:01;;;;;;;24.80;22.20;;;10.80;1.00;;;;;;5106186;27;20438;-83
2021/10/31 03:10:28;;;;;;;25.87;23.17;;;10.70;1.00;;;;;;5101686;27;20415;-83
2021/10/31 03:12:55;;;;;;;23.00;20.60;;;10.60;1.00;;;;;;5124413;27;20406;-83
2021/10/31 03:15:24;;;;;;;27.03;23.57;;;10.60;1.00;;;;;;5096442;27;20442;-83
2021/10/31 03:17:51;;;;;;;23.37;21.03;;;10.60;1.00;;;;;;5096500;27;20558;-84
2021/10/31 03:20:18;;;;;;;27.00;24.13;;;10.50;1.00;;;;;;5099057;27;20445;-83
2021/10/31 03:22:45;;;;;;;28.07;25.13;;;10.60;1.00;;;;;;5103719;27;20460;-84
2021/10/31 03:25:11;;;;;;;26.20;22.50;;;10.50;1.00;;;;;;5105275;27;21353;-83
2021/10/31 03:27:38;;;;;;;24.37;21.80;;;10.40;1.00;;;;;;5102181;27;20460;-84
2021/10/31 03:30:07;;;;;;;25.40;22.90;;;10.30;1.00;;;;;;5101839;27;20526;-83
2021/10/31 03:32:33;;;;;;;24.97;22.47;;;10.30;1.00;;;;;;5100131;27;20472;-83
2021/10/31 03:35:00;;;;;;;23.70;20.60;;;10.30;1.00;;;;;;5102588;27;20661;-84
2021/10/31 03:37:26;;;;;;;24.03;21.53;;;10.30;1.00;;;;;;5103837;27;20475;-84
2021/10/31 03:39:53;;;;;;;24.77;22.27;;;10.20;1.00;;;;;;5110478;27;20436;-84
2021/10/31 03:42:20;;;;;;;22.47;20.27;;;10.20;1.00;;;;;;5105859;27;21094;-84
2021/10/31 03:44:50;;;;;;;22.40;19.87;;;10.30;1.00;;;;;;5105450;27;20449;-84
2021/10/31 03:47:20;;;;;;;22.57;19.57;;;10.40;1.00;;;;;;5102425;27;20457;-84
2021/10/31 03:49:46;;;;;;;23.47;21.07;;;10.50;1.00;;;;;;5103825;27;21240;-83
2021/10/31 03:52:13;;;;;;;23.83;21.60;;;10.70;1.00;;;;;;5101609;27;20462;-84
2021/10/31 03:54:40;;;;;;;23.40;21.03;;;10.80;1.00;;;;;;5098402;27;20998;-84
2021/10/31 03:57:07;;;;;;;24.93;22.33;;;10.90;1.00;;;;;;5104115;27;20519;-83
2021/10/31 03:59:34;;;;;;;23.37;20.90;;;11.00;1.00;;;;;;5103048;27;20448;-84
2021/10/31 04:02:00;;;;;;;24.37;21.90;;;10.90;1.00;;;;;;5117013;27;20409;-83
2021/10/31 04:04:28;;;;;;;24.60;22.00;;;10.90;1.00;;;;;;5128659;27;20485;-83
2021/10/31 04:06:55;;;;;;;24.57;22.07;;;10.90;1.00;;;;;;5100633;27;20441;-84
2021/10/31 04:09:22;;;;;;;24.03;21.63;;;10.80;1.00;;;;;;5097272;27;21000;-84
2021/10/31 04:11:49;;;;;;;25.17;22.77;;;10.80;1.00;;;;;;5094155;27;20428;-84
2021/10/31 04:14:15;;;;;;;25.50;22.60;;;10.80;1.00;;;;;;5102305;27;21388;-84
2021/10/31 04:16:43;;;;;;;25.23;22.53;;;10.80;1.00;;;;;;5090445;27;20457;-83
2021/10/31 04:19:10;;;;;;;25.50;22.90;;;10.60;1.00;;;;;;5094807;27;20578;-83
2021/10/31 04:21:38;;;;;;;24.80;22.30;;;10.60;1.00;;;;;;5097946;27;21343;-84
2021/10/31 04:24:06;;;;;;;23.90;21.60;;;10.60;1.00;;;;;;5096821;27;21221;-84
2021/10/31 04:26:33;;;;;;;24.57;22.07;;;10.60;1.00;;;;;;5099393;27;20552;-84
2021/10/31 04:29:00;;;;;;;24.77;22.17;;;10.50;1.00;;;;;;5102967;27;20838;-84
2021/10/31 04:31:26;;;;;;;22.80;20.50;;;10.40;1.00;;;;;;5099759;27;20483;-83
2021/10/31 04:33:53;;;;;;;23.70;21.50;;;10.40;1.00;;;;;;5100495;27;20468;-84
2021/10/31 04:36:20;;;;;;;24.33;21.97;;;10.40;1.00;;;;;;5100449;27;20457;-83
2021/10/31 04:38:53;;;;;;;23.87;21.50;;;10.40;1.00;;;;;;5099757;27;20480;-84
2021/10/31 04:41:20;;;;;;;23.80;21.30;;;10.40;1.00;;;;;;5099532;27;20573;-84
2021/10/31 04:43:46;;;;;;;23.57;21.10;;;10.40;1.00;;;;;;5098118;27;20453;-84
2021/10/31 04:46:13;;;;;;;22.33;20.13;;;10.40;1.00;;;;;;5107707;27;20470;-84
2021/10/31 04:48:40;;;;;;;23.83;21.30;;;10.40;1.00;;;;;;5110065;27;20513;-84
2021/10/31 04:51:06;;;;;;;24.50;21.13;;;10.40;1.00;;;;;;5106622;27;20433;-84
2021/10/31 04:53:33;;;;;;;25.63;23.13;;;10.40;1.00;;;;;;5121223;27;20406;-84
2021/10/31 04:56:01;;;;;;;26.93;24.30;;;10.20;1.00;;;;;;5132041;27;20902;-84
2021/10/31 04:58:28;;;;;;;25.50;22.87;;;10.20;1.00;;;;;;5135141;27;20413;-85
2021/10/31 05:00:54;;;;;;;24.00;21.53;;;10.10;1.00;;;;;;5127069;27;20452;-84
2021/10/31 05:03:21;;;;;;;29.92;25.23;;;10.10;1.00;;;;;;5118180;27;20536;-85
2021/10/31 05:05:48;;;;;;;25.67;23.03;;;10.00;1.00;;;;;;5116859;27;21163;-84
2021/10/31 05:08:15;;;;;;;24.90;21.73;;;10.00;1.00;;;;;;5109221;27;20440;-82
2021/10/31 05:10:42;;;;;;;25.20;22.00;;;9.90;1.00;;;;;;5110199;27;20569;-83
2021/10/31 05:13:10;;;;;;;25.67;23.13;;;9.90;1.00;;;;;;5109672;27;20471;-83
2021/10/31 05:15:37;;;;;;;25.70;23.10;;;9.80;1.00;;;;;;5111683;27;20936;-84
2021/10/31 05:18:04;;;;;;;27.60;22.87;;;9.80;1.00;;;;;;5108444;27;21302;-83
2021/10/31 05:20:30;;;;;;;28.10;23.87;;;9.80;1.00;;;;;;5113672;27;20887;-84
2021/10/31 05:22:57;;;;;;;26.07;23.17;;;9.80;1.00;;;;;;5111160;27;21113;-83
2021/10/31 05:25:23;;;;;;;25.23;22.73;;;10.00;1.00;;;;;;5098605;27;20553;-83
2021/10/31 05:27:50;;;;;;;23.70;21.40;;;10.10;1.00;;;;;;5094200;27;20442;-83
2021/10/31 05:30:18;;;;;;;22.13;19.83;;;10.30;1.00;;;;;;5098646;27;20969;-86
2021/10/31 05:32:46;;;;;;;22.57;20.27;;;10.40;1.00;;;;;;5096809;27;21422;-84
2021/10/31 05:35:13;;;;;;;22.10;20.00;;;10.50;1.00;;;;;;5100172;27;20483;-83
2021/10/31 05:37:44;;;;;;;22.83;20.67;;;10.60;1.00;;;;;;5101490;27;20425;-84
2021/10/31 05:40:12;;;;;;;23.37;20.90;;;10.60;1.00;;;;;;5111249;27;20461;-83
2021/10/31 05:42:39;;;;;;;20.70;18.60;;;10.60;1.00;;;;;;5131635;27;20464;-84
2021/10/31 05:45:07;;;;;;;20.53;18.40;;;10.70;1.00;;;;;;5114162;27;20445;-84
2021/10/31 05:47:37;;;;;;;18.90;16.90;;;10.70;1.00;;;;;;5100333;27;20486;-84
2021/10/31 05:50:05;;;;;;;19.47;17.57;;;10.80;1.00;;;;;;5098601;27;20439;-84
2021/10/31 05:52:32;;;;;;;21.03;18.87;;;10.80;1.00;;;;;;5100525;27;20477;-84
2021/10/31 05:54:59;;;;;;;20.10;18.07;;;11.00;1.00;;;;;;5107196;27;21355;-84
2021/10/31 05:57:26;;;;;;;20.40;18.30;;;11.00;1.00;;;;;;5103838;27;20457;-84
2021/10/31 05:59:53;;;;;;;21.33;19.13;;;11.10;1.00;;;;;;5102192;27;20460;-85
2021/10/31 06:02:20;;;;;;;20.67;18.57;;;11.10;1.00;;;;;;5106595;27;20457;-85
2021/10/31 06:04:47;;;;;;;22.03;19.70;;;11.20;1.00;;;;;;5105753;27;20461;-85
2021/10/31 06:07:14;;;;;;;21.30;19.20;;;11.20;1.00;;;;;;5110408;27;20529;-84
2021/10/31 06:09:41;;;;;;;21.20;19.03;;;11.10;1.00;;;;;;5113854;27;20540;-85
2021/10/31 06:12:09;;;;;;;20.87;18.70;;;11.10;1.00;;;;;;5110017;27;21681;-85
2021/10/31 06:14:37;;;;;;;22.20;20.00;;;10.90;1.00;;;;;;5111882;27;20448;-85
2021/10/31 06:17:04;;;;;;;24.27;20.23;;;10.90;1.00;;;;;;5107618;27;21397;-85
2021/10/31 06:19:31;;;;;;;22.40;19.57;;;10.90;1.00;;;;;;5109517;27;20457;-85
2021/10/31 06:21:59;;;;;;;21.53;19.33;;;10.80;1.00;;;;;;5109069;27;20446;-85
2021/10/31 06:24:26;;;;;;;20.13;18.03;;;10.80;1.00;;;;;;5116884;27;20428;-85
2021/10/31 06:26:53;;;;;;;25.13;19.63;;;10.80;1.00;;;;;;5109007;27;20450;-85
2021/10/31 06:29:19;;;;;;;22.10;19.70;;;10.80;1.00;;;;;;5096693;27;20604;-85
2021/10/31 06:31:46;;;;;;;21.73;19.53;;;10.70;1.00;;;;;;5099548;27;20457;-85
2021/10/31 06:34:13;;;;;;;23.20;20.90;;;10.70;1.00;;;;;;5095500;27;20552;-85
2021/10/31 06:36:40;;;;;;;20.70;18.57;;;10.70;1.00;;;;;;5102961;27;20448;-85
2021/10/31 06:39:07;;;;;;;23.20;20.70;;;10.70;1.00;;;;;;5096657;27;20548;-85
2021/10/31 06:41:34;;;;;;;23.93;21.10;;;10.80;1.00;;;;;;5113704;27;20472;-85
2021/10/31 06:44:01;;;;;;;22.50;19.87;;;10.80;1.00;;;;;;5101526;27;21612;-85
2021/10/31 06:46:28;;;;;;;22.33;20.10;;;10.80;1.00;;;;;;5102385;27;20444;-85
2021/10/31 06:48:55;;;;;;;24.13;20.50;;;10.80;1.00;;;;;;5105459;27;20551;-83
2021/10/31 06:51:22;;;;;;;22.10;19.50;;;10.90;1.00;;;;;;5115485;27;20449;-82
2021/10/31 06:53:49;;;;;;;21.40;18.63;;;11.00;1.00;;;;;;5121511;27;20457;-82
2021/10/31 06:56:18;;;;;;;22.70;20.10;;;11.10;1.00;;;;;;5123017;27;20410;-82
2021/10/31 06:58:45;;;;;;;22.23;19.87;;;11.30;1.00;;;;;;5137966;27;21911;-82
2021/10/31 07:01:12;;;;;;;22.27;19.97;;;11.40;1.00;;;;;;5129041;27;20452;-82
2021/10/31 07:03:41;;;;;;;24.43;21.10;;;11.50;1.00;;;;;;5132033;27;20495;-82
2021/10/31 07:06:09;;;;;;;24.20;21.80;;;11.70;1.00;;;;;;5115958;27;20500;-82
2021/10/31 07:08:36;;;;;;;23.07;20.73;;;11.80;1.00;;;;;;5113517;27;20472;-82
2021/10/31 07:11:02;;;;;;;23.57;21.07;;;12.00;1.00;;;;;;5107089;27;20472;-82
2021/10/31 07:13:30;;;;;;;22.97;20.67;;;12.20;1.00;;;;;;5109723;27;20432;-82
2021/10/31 07:15:57;;;;;;;24.70;21.50;;;12.30;1.00;;;;;;5107060;27;20475;-83
2021/10/31 07:18:23;;;;;;;22.43;20.33;;;12.60;1.00;;;;;;5107686;27;20425;-82
2021/10/31 07:20:50;;;;;;;21.87;19.77;;;12.80;1.00;;;;;;5110970;27;20453;-82
2021/10/31 07:23:17;;;;;;;20.37;18.33;;;13.00;1.00;;;;;;5109336;27;20493;-82
2021/10/31 07:25:43;;;;;;;21.63;19.43;;;13.10;1.00;;;;;;5110299;27;20434;-83
2021/10/31 07:28:10;;;;;;;20.40;18.30;;;13.20;1.00;;;;;;5107697;27;20415;-82
2021/10/31 07:30:39;;;;;;;20.90;18.80;;;13.20;1.00;;;;;;5109451;27;20481;-82
2021/10/31 07:33:05;;;;;;;20.43;18.53;;;13.20;1.00;;;;;;5108457;27;20468;-82
2021/10/31 07:35:33;;;;;;;21.77;19.53;;;13.30;1.00;;;;;;5108317;27;20457;-82
2021/10/31 07:38:02;;;;;;;21.67;19.53;;;13.30;1.00;;;;;;5113200;27;20457;-82
2021/10/31 07:40:29;;;;;;;20.50;18.60;;;13.50;1.00;;;;;;5105390;27;20483;-82
2021/10/31 07:42:57;;;;;;;20.03;18.17;;;13.60;1.00;;;;;;5110001;27;20465;-81
2021/10/31 07:45:23;;;;;;;20.20;18.10;;;13.70;1.00;;;;;;5113343;27;20486;-83
2021/10/31 07:47:53;;;;;;;20.43;18.37;;;13.70;1.00;;;;;;5115230;27;20414;-81
2021/10/31 07:50:20;;;;;;;21.47;19.17;;;13.80;1.00;;;;;;5116372;27;20481;-83
2021/10/31 07:52:47;;;;;;;21.07;18.97;;;13.80;1.00;;;;;;5117173;27;20464;-83
2021/10/31 07:55:17;;;;;;;21.07;18.77;;;13.80;1.00;;;;;;5114159;27;20750;-83
2021/10/31 07:57:45;;;;;;;20.70;18.70;;;13.80;1.00;;;;;;5106363;27;20516;-82
2021/10/31 08:00:13;;;;;;;20.80;18.60;;;13.90;1.00;;;;;;5097727;27;21011;-84
2021/10/31 08:02:40;;;;;;;21.60;19.40;;;13.90;1.00;;;;;;5105989;27;20479;-83
2021/10/31 08:05:08;;;;;;;20.70;18.80;;;14.10;1.00;;;;;;5103623;27;20519;-83
2021/10/31 08:07:35;;;;;;;20.43;18.23;;;14.10;1.00;;;;;;5107337;27;21323;-85
2021/10/31 08:10:09;;;;;;;19.70;17.60;;;14.20;1.00;;;;;;5118602;27;20503;-79
2021/10/31 08:12:36;;;;;;;20.07;18.07;;;14.30;1.00;;;;;;5128132;27;20475;-80
2021/10/31 08:15:03;;;;;;;21.90;19.67;;;14.40;1.00;;;;;;5112009;27;20444;-81
2021/10/31 08:17:30;;;;;;;20.20;18.10;;;14.50;1.00;;;;;;5099601;27;20449;-80
2021/10/31 08:19:57;;;;;;;20.53;18.33;;;14.60;1.00;;;;;;5106933;27;20493;-79
2021/10/31 08:22:26;;;;;;;19.97;17.90;;;14.60;1.00;;;;;;5104356;27;20458;-79
2021/10/31 08:24:52;;;;;;;18.80;16.90;;;14.70;1.00;;;;;;5107706;27;21883;-78
2021/10/31 08:27:19;;;;;;;19.43;17.47;;;14.60;1.00;;;;;;5103407;27;21300;-79
2021/10/31 08:29:47;;;;;;;19.90;18.00;;;14.50;1.00;;;;;;5117269;27;20406;-83
2021/10/31 08:32:14;;;;;;;20.97;19.07;;;14.40;1.00;;;;;;5107622;27;20450;-83
2021/10/31 08:34:41;;;;;;;21.77;18.30;;;14.40;1.00;;;;;;5108310;27;20453;-81
2021/10/31 08:37:08;;;;;;;21.37;19.27;;;14.30;1.00;;;;;;5118425;27;20522;-81
2021/10/31 08:39:36;;;;;;;20.07;17.90;;;14.30;1.00;;;;;;5126936;27;20462;-81
2021/10/31 08:42:03;;;;;;;19.87;17.87;;;14.30;1.00;;;;;;5134052;27;20429;-83
2021/10/31 08:44:29;;;;;;;20.83;18.80;;;14.30;1.00;;;;;;5137754;27;20425;-83
2021/10/31 08:46:56;;;;;;;20.83;18.80;;;14.30;1.00;;;;;;5136897;27;20466;-81
2021/10/31 08:49:23;;;;;;;20.90;18.70;;;14.40;1.00;;;;;;5139287;27;20433;-82
2021/10/31 08:51:49;;;;;;;21.40;18.60;;;14.40;1.00;;;;;;5134206;27;20453;-82
2021/10/31 08:54:16;;;;;;;21.70;19.53;;;14.50;1.00;;;;;;5135809;27;20476;-81
2021/10/31 08:56:44;;;;;;;20.27;18.27;;;14.50;1.00;;;;;;5135529;27;20451;-81
2021/10/31 08:59:11;;;;;;;22.90;20.67;;;14.60;1.00;;;;;;5136921;27;20458;-82
2021/10/31 09:01:37;;;;;;;20.30;18.33;;;14.60;1.00;;;;;;5130313;27;20561;-82
2021/10/31 09:04:05;;;;;;;22.10;19.90;;;14.70;1.00;;;;;;5138418;27;20425;-82
2021/10/31 09:06:31;;;;;;;21.97;19.93;;;14.70;1.00;;;;;;5129366;27;20524;-82
2021/10/31 09:08:58;;;;;;;20.87;18.77;;;15.00;1.00;;;;;;5136172;27;20786;-81
2021/10/31 09:11:25;;;;;;;21.70;19.60;;;15.40;1.00;;;;;;5128539;27;20477;-82
2021/10/31 09:13:54;;;;;;;21.10;19.00;;;15.70;1.00;;;;;;5145074;27;20486;-82
2021/10/31 09:16:21;;;;;;;22.00;19.90;;;15.90;1.00;;;;;;5147590;27;20461;-81
2021/10/31 09:18:48;;;;;;;22.63;20.37;;;16.10;1.00;;;;;;5140526;27;20469;-81
2021/10/31 09:21:17;;;;;;;21.53;19.53;;;16.10;1.00;;;;;;5133964;27;20512;-82
2021/10/31 09:23:45;;;;;;;20.03;18.20;;;15.90;1.00;;;;;;5124476;27;20443;-82
2021/10/31 09:26:12;;;;;;;20.87;18.83;;;15.70;1.00;;;;;;5126825;27;20471;-82
2021/10/31 09:28:38;;;;;;;20.80;18.80;;;15.60;1.00;;;;;;5115792;27;20441;-82
2021/10/31 09:31:06;;;;;;;21.83;19.53;;;15.70;1.00;;;;;;5125284;27;20446;-79
2021/10/31 09:33:35;;;;;;;22.53;20.30;;;15.70;1.00;;;;;;5122813;27;20427;-82
2021/10/31 09:36:01;;;;;;;21.03;19.03;;;15.80;1.00;;;;;;5118419;27;20434;-82
2021/10/31 09:38:30;;;;;;;22.37;20.00;;;15.80;1.00;;;;;;5133272;27;20436;-81
2021/10/31 09:40:57;;;;;;;20.80;18.77;;;16.00;1.00;;;;;;5116136;27;20554;-82
2021/10/31 09:43:27;;;;;;;19.97;18.07;;;16.10;1.00;;;;;;5121474;27;20458;-82
2021/10/31 09:45:58;;;;;;;20.20;18.23;;;16.20;1.00;;;;;;5119717;27;20451;-82
2021/10/31 09:48:31;;;;;;;20.30;18.43;;;16.20;1.00;;;;;;5126503;27;20542;-83
2021/10/31 09:50:58;;;;;;;20.20;18.20;;;16.40;1.00;;;;;;5123308;27;20440;-81
2021/10/31 09:53:26;;;;;;;21.23;19.23;;;16.40;1.00;;;;;;5126802;27;20535;-83
2021/10/31 09:55:53;;;;;;;19.07;17.17;;;16.40;1.00;;;;;;5118693;27;20453;-83
2021/10/31 09:58:23;;;;;;;19.63;17.77;;;16.60;1.00;;;;;;5123711;27;20425;-82
2021/10/31 10:00:51;;;;;;;18.20;16.40;;;16.70;1.00;;;;;;5125204;27;20462;-83
2021/10/31 10:03:35;;;;;;;17.40;15.80;;;17.00;1.00;;;;;;5121594;27;20435;-83
2021/10/31 10:06:15;;;;;;;18.10;16.30;;;17.40;1.00;;;;;;5123201;27;20523;-82
2021/10/31 10:08:57;;;;;;;17.90;16.13;;;17.50;1.00;;;;;;5120872;27;20425;-82
2021/10/31 10:11:25;;;;;;;18.90;17.10;;;17.80;1.00;;;;;;5120505;27;20999;-83
2021/10/31 10:13:51;;;;;;;17.80;16.00;;;17.90;1.00;;;;;;5143054;27;20446;-82
2021/10/31 10:16:25;;;;;;;17.87;16.17;;;18.00;1.00;;;;;;5152957;27;20421;-81
2021/10/31 10:18:53;;;;;;;17.07;15.37;;;18.00;1.00;;;;;;5121051;27;20452;-82
2021/10/31 10:21:22;;;;;;;16.73;15.13;;;18.00;1.00;;;;;;5124151;27;20566;-82
2021/10/31 10:23:53;;;;;;;16.27;14.77;;;18.10;1.00;;;;;;5124118;27;20547;-83
2021/10/31 10:26:26;;;;;;;16.90;15.30;;;18.20;1.00;;;;;;5121374;27;20473;-83
2021/10/31 10:28:53;;;;;;;15.90;14.27;;;18.30;1.00;;;;;;5118306;27;20452;-82
2021/10/31 10:31:22;;;;;;;16.67;15.10;;;18.20;1.00;;;;;;5122479;27;20445;-83
2021/10/31 10:33:50;;;;;;;16.20;14.60;;;18.40;1.00;;;;;;5120041;27;20499;-82
2021/10/31 10:36:17;;;;;;;16.87;15.17;;;18.70;1.00;;;;;;5122080;27;20451;-83
2021/10/31 10:38:59;;;;;;;16.73;15.23;;;18.70;1.00;;;;;;5118391;27;20479;-83
2021/10/31 10:41:48;;;;;;;15.07;13.47;;;18.70;1.00;;;;;;5116104;27;20468;-83
2021/10/31 10:44:25;;;;;;;16.47;14.87;;;18.60;1.00;;;;;;5116644;27;20465;-81
2021/10/31 10:46:55;;;;;;;14.90;13.53;;;18.60;1.00;;;;;;5123477;27;21242;-83
2021/10/31 10:49:23;;;;;;;14.33;13.03;;;18.60;1.00;;;;;;5124563;27;20953;-83
2021/10/31 10:52:08;;;;;;;13.40;12.10;;;18.70;1.00;;;;;;5125096;27;20468;-82
2021/10/31 10:54:36;;;;;;;14.47;13.17;;;18.90;1.00;;;;;;5125223;27;21384;-82
2021/10/31 10:57:05;;;;;;;13.20;11.90;;;18.90;1.00;;;;;;5121771;27;20557;-83
2021/10/31 10:59:33;;;;;;;13.03;11.73;;;19.00;1.00;;;;;;5121804;27;20511;-82
2021/10/31 11:02:11;;;;;;;13.77;12.37;;;19.20;1.00;;;;;;5120528;27;20543;-83
2021/10/31 11:04:39;;;;;;;12.47;11.27;;;19.30;1.00;;;;;;5126380;27;20555;-82
2021/10/31 11:07:07;;;;;;;13.37;12.13;;;19.60;1.00;;;;;;5120229;27;20451;-82
2021/10/31 11:09:41;;;;;;;12.90;11.60;;;20.10;1.00;;;;;;5122847;27;20430;-83
2021/10/31 11:12:24;;;;;;;13.03;11.73;;;20.60;1.00;;;;;;5125773;27;20469;-83
2021/10/31 11:14:52;;;;;;;12.73;11.50;;;21.20;1.00;;;;;;5134732;27;20468;-83
2021/10/31 11:17:21;;;;;;;13.37;10.93;;;22.10;1.00;;;;;;5149652;27;20490;-84
2021/10/31 11:19:50;;;;;;;12.07;10.97;;;22.90;1.00;;;;;;5122688;27;20477;-83
2021/10/31 11:22:17;;;;;;;14.10;12.77;;;23.40;1.00;;;;;;5145870;27;20468;-82
2021/10/31 11:24:47;;;;;;;14.33;12.90;;;23.40;1.00;;;;;;5140166;27;20439;-82
2021/10/31 11:27:17;;;;;;;12.90;11.70;;;23.30;1.00;;;;;;5148501;27;20459;-82
2021/10/31 11:29:46;;;;;;;14.70;13.40;;;23.20;1.00;;;;;;5146905;27;20492;-82
2021/10/31 11:32:14;;;;;;;12.60;11.40;;;23.30;1.00;;;;;;5135444;27;20444;-82
2021/10/31 11:34:43;;;;;;;14.03;12.80;;;23.50;1.00;;;;;;5149391;27;20431;-82
2021/10/31 11:37:12;;;;;;;14.33;13.00;;;23.30;1.00;;;;;;5164713;27;20515;-81
2021/10/31 11:39:39;;;;;;;13.50;12.10;;;22.90;1.00;;;;;;5164066;27;20826;-82
2021/10/31 11:42:09;;;;;;;15.33;13.83;;;22.80;1.00;;;;;;5142761;27;20458;-82
2021/10/31 11:44:57;;;;;;;15.23;13.83;;;22.90;1.00;;;;;;5141981;27;20472;-83
2021/10/31 11:47:29;;;;;;;13.53;12.33;;;23.50;1.00;;;;;;5139545;27;20459;-83
2021/10/31 11:50:07;;;;;;;15.07;13.67;;;24.30;1.00;;;;;;5141572;27;20460;-85
2021/10/31 11:52:56;;;;;;;15.93;14.43;;;25.30;1.00;;;;;;5140721;27;20463;-83
2021/10/31 11:55:54;;;;;;;16.10;14.60;;;26.10;1.00;;;;;;5122796;27;20460;-82
2021/10/31 11:58:58;;;;;;;16.57;15.17;;;27.00;1.00;;;;;;5145441;27;20461;-83
2021/10/31 12:01:33;;;;;;;18.03;16.43;;;27.90;1.00;;;;;;5126884;27;20445;-83
2021/10/31 12:04:02;;;;;;;17.50;15.83;;;27.30;1.00;;;;;;5142806;27;20444;-83
2021/10/31 12:06:46;;;;;;;17.40;15.83;;;26.50;1.00;;;;;;5153785;27;20429;-83
2021/10/31 12:09:29;;;;;;;16.73;15.13;;;26.10;1.00;;;;;;5163998;27;20452;-82
2021/10/31 12:12:22;;;;;;;16.40;14.90;;;26.70;1.00;;;;;;5150571;27;20435;-82
2021/10/31 12:14:56;;;;;;;15.87;14.53;;;26.70;1.00;;;;;;5144735;27;21695;-82
2021/10/31 12:17:25;;;;;;;16.20;14.80;;;27.20;1.00;;;;;;5153625;27;20536;-82
2021/10/31 12:19:54;;;;;;;17.13;15.43;;;27.50;1.00;;;;;;5154629;27;20449;-82
2021/10/31 12:22:32;;;;;;;13.93;12.73;;;27.40;1.00;;;;;;5150942;27;20483;-82
2021/10/31 12:25:00;;;;;;;15.10;13.70;;;27.50;1.00;;;;;;5144792;27;20465;-83
2021/10/31 12:27:40;;;;;;;15.63;14.13;;;27.20;1.00;;;;;;5146817;27;21744;-83
2021/10/31 12:30:43;;;;;;;15.60;14.10;;;27.00;1.00;;;;;;5141226;27;20440;-83
2021/10/31 12:33:12;;;;;;;13.77;12.43;;;26.80;1.00;;;;;;5140502;27;20489;-83
2021/10/31 12:35:43;;;;;;;13.20;12.10;;;26.40;1.00;;;;;;5122747;27;20601;-84
2021/10/31 12:38:34;;;;;;;13.70;12.43;;;26.00;1.00;;;;;;5147289;27;20528;-83
2021/10/31 12:41:34;;;;;;;13.37;12.20;;;25.30;1.00;;;;;;5137286;27;20537;-82
2021/10/31 12:44:13;;;;;;;14.97;13.67;;;24.50;1.00;;;;;;5138660;27;20444;-84
2021/10/31 12:46:43;;;;;;;14.67;13.20;;;23.80;1.00;;;;;;5150977;27;21461;-83
2021/10/31 12:49:20;;;;;;;15.10;13.60;;;23.70;1.00;;;;;;5148527;27;20439;-83
2021/10/31 12:52:01;;;;;;;13.90;12.37;;;23.60;1.00;;;;;;5153553;27;21118;-82